Time;durP1;ratioP1;P1;durP2;ratioP2;P2;SDS_P1;SDS_P2;PMS_P1;PMS_P2;Temp;Humidity;BMP_temperature;BMP_pressure;BME280_temperature;BME280_humidity;BME280_pressure;Samples;Min_cycle;Max_cycle;Signal;HPM_P1;HPM_P2
2022/09/20 00:01:22;;;;;;;2.60;2.40;;;19.00;64.00;;;;;;5055135;28;20233;-69
2022/09/20 00:03:53;;;;;;;2.50;2.30;;;19.00;64.00;;;;;;5061811;28;20185;-69
2022/09/20 00:06:27;;;;;;;2.42;2.22;;;18.90;63.80;;;;;;5052131;28;20198;-69
2022/09/20 00:08:55;;;;;;;2.53;2.33;;;19.00;63.90;;;;;;5035543;28;20218;-69
2022/09/20 00:11:31;;;;;;;2.50;2.30;;;18.90;63.70;;;;;;5035645;28;20214;-69
2022/09/20 00:14:01;;;;;;;2.75;2.08;;;19.00;63.80;;;;;;5018940;28;20218;-69
2022/09/20 00:16:31;;;;;;;2.08;1.88;;;19.00;64.00;;;;;;5035090;28;20202;-69
2022/09/20 00:19:00;;;;;;;2.45;1.90;;;19.00;64.00;;;;;;5035917;28;20221;-69
2022/09/20 00:21:28;;;;;;;2.13;1.92;;;18.90;63.90;;;;;;5039062;28;20242;-69
2022/09/20 00:23:56;;;;;;;2.20;2.00;;;19.00;64.00;;;;;;5055137;28;20221;-69
2022/09/20 00:26:22;;;;;;;2.65;1.90;;;19.00;64.00;;;;;;5039651;28;20191;-69
2022/09/20 00:28:49;;;;;;;2.35;2.17;;;18.90;63.80;;;;;;5039594;28;20241;-69
2022/09/20 00:31:15;;;;;;;1.80;1.70;;;18.90;63.80;;;;;;5039839;28;20206;-69
2022/09/20 00:36:29;;;;;;;2.85;2.13;;;18.90;63.70;;;;;;5059631;28;20206;-69
2022/09/20 00:38:56;;;;;;;2.05;1.85;;;18.90;63.70;;;;;;5060719;28;20194;-69
2022/09/20 00:41:23;;;;;;;2.85;1.88;;;18.90;63.70;;;;;;5076423;28;20255;-69
2022/09/20 00:43:49;;;;;;;1.83;1.73;;;18.90;63.60;;;;;;5076409;28;20205;-69
2022/09/20 00:46:50;;;;;;;2.13;2.00;;;18.90;63.80;;;;;;5075799;28;20194;-69
2022/09/20 00:49:26;;;;;;;2.00;1.80;;;18.90;63.60;;;;;;5036673;28;20202;-69
2022/09/20 00:52:00;;;;;;;2.28;2.08;;;18.90;63.70;;;;;;5076169;28;20242;-69
2022/09/20 00:54:29;;;;;;;1.90;1.80;;;18.90;63.80;;;;;;5060797;28;20238;-69
2022/09/20 00:56:55;;;;;;;2.03;1.85;;;18.90;63.80;;;;;;5059496;28;20277;-69
2022/09/20 00:59:35;;;;;;;2.20;2.00;;;18.90;63.80;;;;;;5033091;28;20218;-69
2022/09/20 01:02:15;;;;;;;2.05;1.90;;;18.90;63.80;;;;;;5035359;28;20226;-69
2022/09/20 01:04:43;;;;;;;2.20;2.00;;;18.90;63.70;;;;;;5045367;28;20179;-69
2022/09/20 01:07:14;;;;;;;2.65;1.98;;;18.90;63.60;;;;;;5039244;28;20218;-69
2022/09/20 01:09:40;;;;;;;2.10;2.00;;;18.90;63.50;;;;;;5039663;28;20190;-69
2022/09/20 01:12:14;;;;;;;2.58;1.77;;;18.90;63.60;;;;;;5039526;28;20199;-69
2022/09/20 01:14:42;;;;;;;2.00;1.80;;;18.90;63.60;;;;;;5056800;28;20187;-69
2022/09/20 01:17:10;;;;;;;2.72;1.75;;;18.80;63.60;;;;;;5039579;28;20186;-69
2022/09/20 01:20:04;;;;;;;2.05;1.95;;;18.80;63.70;;;;;;5040133;28;20196;-69
2022/09/20 01:22:57;;;;;;;1.70;1.60;;;18.90;63.70;;;;;;5039709;28;20721;-69
2022/09/20 01:26:19;;;;;;;1.88;1.77;;;18.90;63.70;;;;;;5039987;28;20187;-69
2022/09/20 01:28:48;;;;;;;2.08;1.88;;;18.90;63.40;;;;;;5039991;28;20225;-70
2022/09/20 01:31:38;;;;;;;1.88;1.77;;;18.80;63.50;;;;;;5039653;28;20215;-69
2022/09/20 01:34:13;;;;;;;2.08;1.60;;;18.80;63.60;;;;;;5047502;28;20179;-70
2022/09/20 01:37:01;;;;;;;2.05;1.92;;;18.90;63.70;;;;;;5022174;28;20182;-69
2022/09/20 01:40:05;;;;;;;1.83;1.73;;;18.80;63.60;;;;;;5038760;28;20195;-69
2022/09/20 01:42:41;;;;;;;2.00;1.90;;;18.90;63.40;;;;;;5038407;28;20211;-69
2022/09/20 01:45:10;;;;;;;1.83;1.60;;;18.80;63.40;;;;;;5023011;28;20186;-69
2022/09/20 01:47:55;;;;;;;1.60;1.50;;;18.80;63.40;;;;;;5039017;28;20275;-69
2022/09/20 01:51:05;;;;;;;1.73;1.63;;;18.80;63.50;;;;;;5038808;28;20171;-69
2022/09/20 01:54:01;;;;;;;1.80;1.70;;;18.80;63.50;;;;;;5038957;28;20203;-69
2022/09/20 01:57:02;;;;;;;2.13;1.40;;;18.80;63.30;;;;;;5039024;28;20190;-69
2022/09/20 01:59:43;;;;;;;2.03;1.80;;;18.80;63.30;;;;;;5038689;28;20229;-69
2022/09/20 02:02:46;;;;;;;1.98;1.88;;;18.80;63.30;;;;;;5043729;28;20299;-69
2022/09/20 02:05:40;;;;;;;2.03;1.90;;;18.80;63.50;;;;;;5052677;28;20205;-69
2022/09/20 02:08:33;;;;;;;1.58;1.48;;;18.80;63.10;;;;;;5059569;28;20211;-69
2022/09/20 02:11:17;;;;;;;1.77;1.67;;;18.80;63.20;;;;;;5059669;28;20178;-69
2022/09/20 02:14:12;;;;;;;1.90;1.80;;;18.80;63.50;;;;;;5059673;28;20175;-69
2022/09/20 02:16:47;;;;;;;1.95;1.70;;;18.80;63.30;;;;;;5042775;28;20213;-69
2022/09/20 02:19:36;;;;;;;1.77;1.67;;;18.80;63.20;;;;;;5076242;28;20273;-69
2022/09/20 02:22:39;;;;;;;1.70;1.60;;;18.80;63.00;;;;;;5059259;28;20207;-69
2022/09/20 02:25:26;;;;;;;2.00;1.90;;;18.80;63.00;;;;;;5059013;28;20196;-69
2022/09/20 02:28:22;;;;;;;2.20;2.00;;;18.80;63.20;;;;;;5059280;28;20293;-69
2022/09/20 02:30:56;;;;;;;2.13;1.60;;;18.80;63.30;;;;;;5059153;28;20198;-69
2022/09/20 02:33:45;;;;;;;1.70;1.60;;;18.80;63.10;;;;;;5069155;28;20190;-69
2022/09/20 02:36:25;;;;;;;1.80;1.70;;;18.80;63.00;;;;;;5040308;28;20201;-69
2022/09/20 02:39:20;;;;;;;1.63;1.52;;;18.80;63.10;;;;;;5048001;28;20198;-69
2022/09/20 02:42:13;;;;;;;1.45;1.30;;;18.80;63.20;;;;;;5057778;28;20210;-70
2022/09/20 02:45:21;;;;;;;1.40;1.30;;;18.80;63.20;;;;;;5045803;28;20229;-69
2022/09/20 02:47:47;;;;;;;1.58;1.48;;;18.80;63.00;;;;;;5069276;28;20218;-69
2022/09/20 02:50:58;;;;;;;2.15;1.45;;;18.70;62.70;;;;;;5050344;28;20191;-69
2022/09/20 02:54:00;;;;;;;1.60;1.50;;;18.70;62.90;;;;;;5055779;28;20646;-69
2022/09/20 02:56:50;;;;;;;2.38;1.70;;;18.80;63.10;;;;;;5073377;28;20192;-69
2022/09/20 02:59:30;;;;;;;1.75;1.65;;;18.70;62.90;;;;;;5057885;28;20197;-69
2022/09/20 03:02:14;;;;;;;1.38;1.27;;;18.80;63.00;;;;;;5054054;28;20211;-69
2022/09/20 03:05:13;;;;;;;1.60;1.50;;;18.70;63.70;;;;;;5045048;28;20271;-69
2022/09/20 03:08:03;;;;;;;1.60;1.50;;;18.70;63.00;;;;;;5035010;28;20258;-69
2022/09/20 03:11:01;;;;;;;1.67;1.50;;;18.70;62.90;;;;;;5036375;28;20191;-69
2022/09/20 03:14:22;;;;;;;1.40;1.30;;;18.70;62.60;;;;;;5036145;28;20334;-69
2022/09/20 03:17:06;;;;;;;1.52;1.42;;;18.70;62.90;;;;;;5054610;28;20196;-69
2022/09/20 03:19:55;;;;;;;1.60;1.50;;;18.70;63.00;;;;;;5022302;28;20174;-70
2022/09/20 03:22:52;;;;;;;1.60;1.50;;;18.70;62.90;;;;;;5035385;28;20243;-69
2022/09/20 03:25:34;;;;;;;1.70;1.60;;;18.70;62.60;;;;;;5053183;28;20191;-69
2022/09/20 03:28:22;;;;;;;1.67;1.58;;;18.70;62.90;;;;;;5020251;28;20211;-69
2022/09/20 03:31:26;;;;;;;1.80;1.70;;;18.70;63.00;;;;;;5037633;28;20271;-70
2022/09/20 03:34:10;;;;;;;1.80;1.40;;;18.70;62.90;;;;;;5046720;28;20179;-69
2022/09/20 03:37:00;;;;;;;1.80;1.70;;;18.70;62.70;;;;;;5056168;28;20340;-69
2022/09/20 03:39:47;;;;;;;1.50;1.40;;;18.70;62.60;;;;;;5055977;28;20216;-69
2022/09/20 03:42:27;;;;;;;2.00;1.80;;;18.70;62.80;;;;;;5056291;28;20237;-69
2022/09/20 03:45:45;;;;;;;1.80;1.70;;;18.70;62.80;;;;;;5056414;28;20236;-69
2022/09/20 03:48:35;;;;;;;1.98;1.80;;;18.70;62.90;;;;;;5056488;28;20297;-69
2022/09/20 03:51:28;;;;;;;1.63;1.52;;;18.70;62.60;;;;;;5056361;28;20178;-70
2022/09/20 03:54:47;;;;;;;2.33;1.60;;;18.70;62.90;;;;;;5056012;28;20183;-69
2022/09/20 03:57:50;;;;;;;1.80;1.70;;;18.70;62.80;;;;;;5034346;28;20198;-69
2022/09/20 04:00:37;;;;;;;1.70;1.60;;;18.70;62.50;;;;;;5055313;28;20236;-69
2022/09/20 04:03:59;;;;;;;1.70;1.60;;;18.70;62.70;;;;;;5050195;28;20219;-69
2022/09/20 04:06:40;;;;;;;1.77;1.67;;;18.70;62.70;;;;;;5031997;28;20182;-69
2022/09/20 04:09:46;;;;;;;2.03;1.83;;;18.70;62.50;;;;;;5032068;28;20219;-69
2022/09/20 04:12:48;;;;;;;1.63;1.52;;;18.70;62.70;;;;;;5014576;28;20204;-69
2022/09/20 04:15:37;;;;;;;2.28;2.00;;;18.70;62.70;;;;;;5014868;28;20172;-69
2022/09/20 04:18:27;;;;;;;1.83;1.70;;;18.70;62.70;;;;;;5014525;28;20176;-69
2022/09/20 04:21:16;;;;;;;1.65;1.55;;;18.70;62.70;;;;;;5031519;28;20275;-70
2022/09/20 04:24:16;;;;;;;1.90;1.80;;;18.70;62.60;;;;;;5014361;28;20254;-69
2022/09/20 04:26:51;;;;;;;2.70;1.80;;;18.60;62.60;;;;;;5014096;28;20176;-69
2022/09/20 04:29:59;;;;;;;2.72;1.80;;;18.70;62.50;;;;;;5031338;28;20196;-69
2022/09/20 04:32:43;;;;;;;1.52;1.42;;;18.70;62.60;;;;;;5030742;28;20214;-69
2022/09/20 04:38:28;;;;;;;2.20;2.00;;;18.70;62.50;;;;;;5054638;28;20220;-69
2022/09/20 04:41:05;;;;;;;2.35;1.77;;;18.70;62.70;;;;;;5054448;28;20190;-69
2022/09/20 04:43:52;;;;;;;1.67;1.58;;;18.70;62.60;;;;;;5056792;28;20229;-70
2022/09/20 04:47:15;;;;;;;2.25;2.05;;;18.70;62.60;;;;;;5056965;28;20195;-70
2022/09/20 04:50:28;;;;;;;2.20;1.67;;;18.70;62.40;;;;;;5056729;28;20205;-70
2022/09/20 04:53:43;;;;;;;2.00;1.80;;;18.60;62.50;;;;;;5053285;28;20229;-69
2022/09/20 04:56:58;;;;;;;2.03;1.83;;;18.60;62.50;;;;;;5052249;28;20171;-69
2022/09/20 04:59:48;;;;;;;1.88;1.77;;;18.60;62.30;;;;;;5052693;28;20277;-69
2022/09/20 05:02:43;;;;;;;1.90;1.80;;;18.60;62.40;;;;;;5049073;28;20293;-70
2022/09/20 05:05:46;;;;;;;1.77;1.65;;;18.60;62.40;;;;;;5048946;28;20183;-70
2022/09/20 05:08:39;;;;;;;2.38;2.17;;;18.60;62.40;;;;;;5058539;28;20305;-70
2022/09/20 05:11:42;;;;;;;2.15;1.92;;;18.60;62.50;;;;;;5039592;28;20199;-70
2022/09/20 05:14:44;;;;;;;2.05;1.85;;;18.70;62.60;;;;;;5023327;28;20270;-70
2022/09/20 05:17:38;;;;;;;2.28;1.92;;;18.60;62.30;;;;;;5038846;28;20183;-70
2022/09/20 05:20:25;;;;;;;1.83;1.67;;;18.60;62.20;;;;;;5038587;28;20215;-70
2022/09/20 05:23:09;;;;;;;1.83;1.70;;;18.60;62.60;;;;;;5030933;28;20219;-69
2022/09/20 05:26:13;;;;;;;1.90;1.77;;;18.60;62.50;;;;;;5016860;28;20199;-69
2022/09/20 05:29:01;;;;;;;2.25;2.03;;;18.60;62.40;;;;;;5016783;28;20238;-69
2022/09/20 05:31:59;;;;;;;2.13;1.80;;;18.60;62.40;;;;;;5031649;28;20218;-69
2022/09/20 05:35:19;;;;;;;3.50;2.25;;;18.60;62.40;;;;;;5048583;28;20176;-69
2022/09/20 05:38:17;;;;;;;2.30;2.10;;;18.60;62.40;;;;;;5037399;28;20280;-69
2022/09/20 05:41:17;;;;;;;2.72;1.90;;;18.60;62.20;;;;;;5048586;28;20240;-69
2022/09/20 05:44:40;;;;;;;2.38;2.17;;;18.60;62.40;;;;;;5032140;28;20168;-71
2022/09/20 05:47:30;;;;;;;2.90;2.17;;;18.60;62.40;;;;;;5048514;28;20226;-69
2022/09/20 05:50:38;;;;;;;2.17;1.73;;;18.60;62.40;;;;;;5032044;28;20192;-69
2022/09/20 05:53:55;;;;;;;3.00;1.95;;;18.60;62.30;;;;;;5048728;28;20253;-69
2022/09/20 05:56:46;;;;;;;2.72;2.00;;;18.60;62.30;;;;;;5048633;28;20215;-69
2022/09/20 05:59:31;;;;;;;2.60;2.20;;;18.60;62.20;;;;;;5016212;28;20176;-69
2022/09/20 06:02:31;;;;;;;2.05;1.85;;;18.60;62.20;;;;;;5030439;28;20206;-69
2022/09/20 06:05:41;;;;;;;2.20;2.00;;;18.60;62.40;;;;;;5035375;28;20283;-69
2022/09/20 06:08:32;;;;;;;2.05;1.95;;;18.60;62.40;;;;;;5028171;28;20227;-69
2022/09/20 06:11:23;;;;;;;2.92;2.22;;;18.60;62.20;;;;;;5034937;28;20281;-69
2022/09/20 06:14:17;;;;;;;2.78;2.58;;;18.60;62.20;;;;;;5036169;28;20195;-69
2022/09/20 06:17:15;;;;;;;2.42;2.22;;;18.60;62.40;;;;;;5034541;28;20178;-69
2022/09/20 06:20:11;;;;;;;2.40;2.15;;;18.60;62.40;;;;;;5051136;28;20314;-69
2022/09/20 06:22:59;;;;;;;3.03;2.40;;;18.60;62.30;;;;;;5034534;28;20239;-69
2022/09/20 06:25:33;;;;;;;2.72;2.45;;;18.60;62.40;;;;;;5034723;28;20186;-69
2022/09/20 06:28:29;;;;;;;2.92;2.30;;;18.60;62.40;;;;;;5034608;28;20222;-69
2022/09/20 06:30:56;;;;;;;2.50;2.30;;;18.60;62.40;;;;;;5033488;28;20202;-69
2022/09/20 06:33:27;;;;;;;4.00;2.28;;;18.60;62.40;;;;;;5034971;28;20187;-70
2022/09/20 06:42:33;;;;;;;2.55;2.35;;;18.60;62.40;;;;;;5022414;28;20241;-69
2022/09/20 06:44:59;;;;;;;3.53;2.28;;;18.60;62.40;;;;;;5035214;28;20191;-69
2022/09/20 06:47:26;;;;;;;2.65;2.45;;;18.60;62.40;;;;;;5050443;28;20207;-69
2022/09/20 06:49:51;;;;;;;2.60;2.40;;;18.60;62.40;;;;;;5034511;28;20225;-69
2022/09/20 06:52:21;;;;;;;3.75;2.28;;;18.60;62.40;;;;;;5051603;28;20303;-69
2022/09/20 06:54:54;;;;;;;2.70;2.50;;;18.60;62.40;;;;;;5034324;28;20272;-69
2022/09/20 06:57:35;;;;;;;2.28;2.08;;;18.60;62.40;;;;;;5035191;28;20176;-69
2022/09/20 07:00:01;;;;;;;2.60;2.40;;;18.60;62.40;;;;;;5036666;28;20180;-69
2022/09/20 07:02:27;;;;;;;2.83;2.38;;;18.60;62.50;;;;;;5036146;28;20199;-69
2022/09/20 07:04:54;;;;;;;2.70;2.50;;;18.70;62.50;;;;;;5049458;28;20190;-69
2022/09/20 07:07:20;;;;;;;2.67;2.28;;;18.60;62.40;;;;;;5048995;28;20223;-69
2022/09/20 07:09:46;;;;;;;3.53;2.78;;;18.60;62.50;;;;;;5049636;28;20187;-70
2022/09/20 07:12:12;;;;;;;3.00;2.50;;;18.60;62.50;;;;;;5033142;28;20213;-69
2022/09/20 07:14:38;;;;;;;2.60;1.98;;;18.60;62.60;;;;;;5033086;28;20565;-69
2022/09/20 07:17:05;;;;;;;2.67;2.05;;;18.60;62.60;;;;;;5049148;28;20183;-69
2022/09/20 07:19:31;;;;;;;2.70;2.50;;;18.60;62.50;;;;;;5032735;28;20670;-69
2022/09/20 07:21:56;;;;;;;3.10;2.53;;;18.60;62.60;;;;;;5032689;28;20198;-69
2022/09/20 07:24:22;;;;;;;5.53;2.42;;;18.60;62.60;;;;;;5032659;28;20686;-69
2022/09/20 07:26:57;;;;;;;3.45;2.58;;;18.70;62.70;;;;;;5032666;28;20198;-69
2022/09/20 07:29:24;;;;;;;3.50;2.15;;;18.60;62.50;;;;;;5048742;28;20218;-69
2022/09/20 07:31:50;;;;;;;2.75;2.38;;;18.60;62.60;;;;;;5032713;28;20203;-69
2022/09/20 07:34:19;;;;;;;3.22;2.40;;;18.70;62.70;;;;;;5033718;28;20595;-69
2022/09/20 07:36:49;;;;;;;2.08;1.80;;;18.70;62.70;;;;;;5033543;28;20183;-69
2022/09/20 07:39:16;;;;;;;3.05;2.20;;;18.60;62.50;;;;;;5033661;28;20183;-69
2022/09/20 07:41:47;;;;;;;2.30;2.10;;;18.70;62.70;;;;;;5049034;28;20309;-69
2022/09/20 07:44:20;;;;;;;2.58;2.35;;;18.60;62.60;;;;;;5049032;28;20176;-69
2022/09/20 07:46:57;;;;;;;3.08;2.20;;;18.70;62.70;;;;;;5033501;28;20171;-69
2022/09/20 07:49:25;;;;;;;2.20;2.00;;;18.70;62.70;;;;;;5033290;28;20583;-70
2022/09/20 07:51:52;;;;;;;2.67;2.35;;;18.70;62.70;;;;;;5033457;28;20203;-69
2022/09/20 07:54:19;;;;;;;4.30;2.40;;;18.70;62.70;;;;;;5033460;28;20190;-69
2022/09/20 07:56:45;;;;;;;2.75;2.05;;;18.70;62.60;;;;;;5031975;28;20245;-69
2022/09/20 07:59:12;;;;;;;2.40;2.03;;;18.70;62.60;;;;;;5033304;28;20181;-69
2022/09/20 08:01:39;;;;;;;3.00;2.28;;;18.80;62.80;;;;;;5032494;28;20207;-69
2022/09/20 08:04:07;;;;;;;3.85;2.50;;;18.70;62.60;;;;;;5032115;28;20201;-70
2022/09/20 08:06:42;;;;;;;3.45;2.47;;;18.80;62.70;;;;;;5048427;28;20191;-69
2022/09/20 08:09:09;;;;;;;2.70;1.90;;;18.80;62.60;;;;;;5048722;28;20278;-69
2022/09/20 08:11:38;;;;;;;3.58;1.90;;;18.80;62.60;;;;;;5033020;28;20199;-69
2022/09/20 08:14:04;;;;;;;2.17;1.98;;;18.90;62.60;;;;;;5033355;28;20179;-70
2022/09/20 08:16:31;;;;;;;2.30;2.00;;;18.90;62.60;;;;;;5031423;28;20175;-69
2022/09/20 08:19:01;;;;;;;2.17;1.98;;;18.90;62.70;;;;;;5032104;28;20190;-69
2022/09/20 08:21:32;;;;;;;2.30;2.08;;;18.90;62.70;;;;;;5031926;28;20211;-69
2022/09/20 08:23:59;;;;;;;2.20;1.80;;;18.90;62.70;;;;;;5048816;28;20257;-69
2022/09/20 08:26:27;;;;;;;2.22;1.88;;;18.90;62.70;;;;;;5032915;28;20255;-69
2022/09/20 08:28:56;;;;;;;2.22;1.88;;;18.90;62.70;;;;;;5032633;28;20215;-70
2022/09/20 08:31:35;;;;;;;3.03;2.28;;;18.90;62.60;;;;;;5032860;28;20298;-69
2022/09/20 08:34:05;;;;;;;2.40;2.20;;;18.90;62.50;;;;;;5032207;28;20179;-69
2022/09/20 08:36:33;;;;;;;2.30;2.10;;;18.90;62.70;;;;;;5032937;28;20191;-69
2022/09/20 08:38:59;;;;;;;2.25;2.05;;;18.90;62.70;;;;;;5032083;28;20218;-69
2022/09/20 08:41:37;;;;;;;2.15;1.95;;;19.00;62.80;;;;;;5035589;28;20231;-69
2022/09/20 08:44:28;;;;;;;2.40;2.10;;;19.00;62.60;;;;;;5036225;28;20190;-70
2022/09/20 08:47:16;;;;;;;2.25;2.05;;;19.00;63.40;;;;;;5035945;28;20193;-69
2022/09/20 08:49:43;;;;;;;2.33;1.90;;;19.00;62.80;;;;;;5036285;28;20198;-69
2022/09/20 08:52:30;;;;;;;2.05;1.80;;;19.00;62.80;;;;;;5052390;28;20230;-69
2022/09/20 08:54:58;;;;;;;3.72;2.25;;;19.00;63.00;;;;;;5035698;28;20183;-69
2022/09/20 08:57:29;;;;;;;2.05;1.77;;;19.00;62.80;;;;;;5051834;28;20203;-69
2022/09/20 08:59:59;;;;;;;2.00;1.80;;;19.00;62.70;;;;;;5035565;28;20175;-69
2022/09/20 09:02:30;;;;;;;2.38;2.08;;;19.00;62.80;;;;;;5052295;28;20208;-69
2022/09/20 09:04:57;;;;;;;2.72;2.10;;;19.00;62.70;;;;;;5052093;28;20190;-69
2022/09/20 09:07:26;;;;;;;2.08;1.70;;;19.00;62.60;;;;;;5035564;28;20214;-70
2022/09/20 09:09:55;;;;;;;2.97;1.85;;;19.00;62.80;;;;;;5069076;28;20190;-70
2022/09/20 09:12:28;;;;;;;2.15;1.88;;;19.00;62.80;;;;;;5036242;28;20253;-69
2022/09/20 09:15:20;;;;;;;2.03;1.67;;;19.00;62.80;;;;;;5019481;28;20175;-70
2022/09/20 09:17:46;;;;;;;2.78;1.90;;;19.00;62.80;;;;;;5038649;28;20194;-70
2022/09/20 09:20:21;;;;;;;2.70;1.90;;;19.00;63.80;;;;;;5035680;28;20183;-69
2022/09/20 09:23:01;;;;;;;2.33;1.63;;;19.00;63.10;;;;;;5036480;28;20729;-69
2022/09/20 09:25:38;;;;;;;1.95;1.83;;;19.00;63.10;;;;;;5052187;28;20251;-69
2022/09/20 09:28:07;;;;;;;3.25;1.75;;;19.00;62.90;;;;;;5036617;28;20203;-69
2022/09/20 09:30:42;;;;;;;2.63;1.70;;;19.00;62.80;;;;;;5036176;28;20261;-69
2022/09/20 09:33:29;;;;;;;1.75;1.65;;;19.00;62.60;;;;;;5053570;28;20214;-69
2022/09/20 09:36:02;;;;;;;2.45;1.63;;;19.00;63.10;;;;;;5018969;28;20270;-69
2022/09/20 09:38:32;;;;;;;2.28;2.05;;;19.00;63.40;;;;;;5035745;28;20179;-69
2022/09/20 09:41:32;;;;;;;2.15;1.50;;;19.00;63.60;;;;;;5036004;28;20191;-69
2022/09/20 09:44:17;;;;;;;2.38;1.85;;;19.10;63.20;;;;;;5035621;28;20288;-69
2022/09/20 09:46:43;;;;;;;2.50;1.85;;;19.10;63.70;;;;;;5035267;28;20183;-69
2022/09/20 09:49:25;;;;;;;2.13;1.60;;;19.00;62.80;;;;;;5036570;28;20225;-69
2022/09/20 09:52:03;;;;;;;2.50;1.80;;;19.00;62.70;;;;;;5037166;28;20195;-69
2022/09/20 09:54:35;;;;;;;1.50;1.40;;;19.00;63.00;;;;;;5038123;28;20203;-70
2022/09/20 09:57:14;;;;;;;1.67;1.58;;;19.00;62.60;;;;;;5037995;28;20175;-70
2022/09/20 10:00:17;;;;;;;2.40;1.73;;;19.00;62.70;;;;;;5054221;28;20175;-70
2022/09/20 10:03:29;;;;;;;1.70;1.40;;;19.00;63.80;;;;;;5044306;28;20210;-70
2022/09/20 10:06:25;;;;;;;2.95;1.60;;;19.00;63.10;;;;;;5036390;28;20183;-69
2022/09/20 10:09:11;;;;;;;1.75;1.65;;;19.10;63.10;;;;;;5032619;28;20212;-69
2022/09/20 10:12:29;;;;;;;2.65;1.40;;;19.10;63.30;;;;;;5033168;28;20633;-70
2022/09/20 10:15:31;;;;;;;1.50;1.38;;;19.10;63.50;;;;;;5029263;28;20256;-69
2022/09/20 10:18:28;;;;;;;2.40;1.70;;;19.10;63.30;;;;;;5020254;28;20179;-70
2022/09/20 10:21:10;;;;;;;3.25;1.50;;;19.10;63.60;;;;;;5020059;28;20194;-69
2022/09/20 10:24:18;;;;;;;1.92;1.60;;;19.10;63.60;;;;;;5043057;28;20195;-70
2022/09/20 10:27:28;;;;;;;1.83;1.50;;;19.10;63.50;;;;;;5037665;28;20195;-69
2022/09/20 10:30:35;;;;;;;1.60;1.30;;;19.10;62.90;;;;;;5065645;28;20256;-70
2022/09/20 10:33:36;;;;;;;1.65;1.55;;;19.10;63.30;;;;;;5042708;28;20219;-69
2022/09/20 10:36:23;;;;;;;2.20;1.60;;;19.10;63.00;;;;;;5037249;28;20277;-70
2022/09/20 10:39:34;;;;;;;2.60;1.23;;;19.10;62.90;;;;;;5049255;28;20276;-70
2022/09/20 10:46:01;;;;;;;1.55;1.45;;;19.10;62.90;;;;;;5020666;28;20230;-70
2022/09/20 10:48:40;;;;;;;2.45;1.45;;;19.10;63.50;;;;;;5028336;28;20223;-70
2022/09/20 10:51:20;;;;;;;1.50;1.40;;;19.10;63.90;;;;;;5051728;28;20174;-70
2022/09/20 10:54:04;;;;;;;1.67;1.42;;;19.10;63.90;;;;;;5058921;28;20173;-71
2022/09/20 10:56:40;;;;;;;1.73;1.13;;;19.10;63.90;;;;;;5057659;28;20182;-70
2022/09/20 10:59:39;;;;;;;1.70;1.20;;;19.10;62.90;;;;;;5075290;28;20179;-70
2022/09/20 11:03:04;;;;;;;1.50;1.40;;;19.10;62.80;;;;;;5056745;28;20211;-71
2022/09/20 11:05:55;;;;;;;1.92;1.40;;;19.00;63.50;;;;;;5046049;28;20202;-70
2022/09/20 11:08:27;;;;;;;2.20;1.30;;;19.10;63.10;;;;;;5057923;28;20210;-70
2022/09/20 11:11:09;;;;;;;1.55;1.25;;;19.10;62.80;;;;;;5058209;28;20167;-70
2022/09/20 11:13:53;;;;;;;1.98;1.55;;;19.10;62.40;;;;;;5058846;28;20202;-70
2022/09/20 11:16:42;;;;;;;1.27;1.17;;;19.10;62.60;;;;;;5051837;28;20191;-71
2022/09/20 11:19:34;;;;;;;2.13;1.55;;;19.10;63.30;;;;;;5043780;28;20199;-70
2022/09/20 11:22:43;;;;;;;1.33;1.23;;;19.10;63.20;;;;;;5055361;28;20215;-70
2022/09/20 11:25:43;;;;;;;1.75;1.20;;;19.10;63.00;;;;;;5053902;28;20263;-70
2022/09/20 11:28:32;;;;;;;2.15;1.25;;;19.10;63.00;;;;;;5072991;28;20218;-70
2022/09/20 11:31:23;;;;;;;1.75;1.33;;;19.10;63.90;;;;;;5056042;28;20171;-69
2022/09/20 11:33:58;;;;;;;2.00;1.35;;;19.10;63.20;;;;;;5052858;28;20236;-69
2022/09/20 11:36:38;;;;;;;1.90;1.35;;;19.10;63.20;;;;;;5053574;28;20189;-69
2022/09/20 11:39:42;;;;;;;1.27;1.13;;;19.10;62.80;;;;;;5053427;28;20186;-69
2022/09/20 11:42:32;;;;;;;1.30;1.20;;;19.10;62.70;;;;;;5020089;28;20228;-69
2022/09/20 11:44:58;;;;;;;1.98;1.38;;;19.10;62.80;;;;;;5054359;28;20174;-69
2022/09/20 11:47:46;;;;;;;1.50;1.33;;;19.10;63.00;;;;;;5048667;28;20187;-69
2022/09/20 11:50:46;;;;;;;1.65;1.38;;;19.10;62.90;;;;;;5074398;28;20171;-69
2022/09/20 11:53:28;;;;;;;1.20;1.10;;;19.10;63.00;;;;;;5034585;28;20294;-69
2022/09/20 11:56:04;;;;;;;1.40;1.25;;;19.10;63.00;;;;;;5033404;28;20187;-69
2022/09/20 11:58:30;;;;;;;1.67;1.58;;;19.10;63.00;;;;;;5034289;28;20199;-69
2022/09/20 12:00:58;;;;;;;2.13;1.20;;;19.10;63.00;;;;;;5033178;28;20187;-69
2022/09/20 12:03:38;;;;;;;1.27;1.17;;;19.10;62.90;;;;;;5049747;28;20183;-69
2022/09/20 12:06:24;;;;;;;2.90;1.20;;;19.10;63.00;;;;;;5032744;28;20228;-69
2022/09/20 12:08:51;;;;;;;1.98;1.40;;;19.10;63.30;;;;;;5034261;28;20210;-69
2022/09/20 12:11:32;;;;;;;1.25;1.10;;;19.10;62.90;;;;;;5032974;28;20195;-69
2022/09/20 12:14:07;;;;;;;1.80;1.23;;;19.10;62.80;;;;;;5034326;28;20163;-69
2022/09/20 12:16:42;;;;;;;2.00;1.52;;;19.10;62.90;;;;;;5049678;28;20253;-69
2022/09/20 12:19:32;;;;;;;1.20;1.10;;;19.10;62.70;;;;;;5036835;28;20189;-69
2022/09/20 12:21:58;;;;;;;1.20;1.10;;;19.10;62.70;;;;;;5049462;28;20213;-69
2022/09/20 12:24:38;;;;;;;1.80;1.20;;;19.10;63.30;;;;;;5033873;28;20179;-69
2022/09/20 12:27:48;;;;;;;2.00;1.20;;;19.10;63.10;;;;;;5016082;28;20203;-69
2022/09/20 12:30:16;;;;;;;2.08;1.13;;;19.10;62.40;;;;;;5030170;28;20203;-70
2022/09/20 12:32:50;;;;;;;2.72;1.42;;;19.10;62.90;;;;;;5032530;28;20203;-69
2022/09/20 12:35:34;;;;;;;1.92;1.15;;;19.20;63.00;;;;;;5034143;28;20175;-69
2022/09/20 12:38:30;;;;;;;1.75;1.00;;;19.10;62.70;;;;;;5032847;28;20233;-70
2022/09/20 12:41:10;;;;;;;2.28;1.27;;;19.10;62.90;;;;;;5032833;28;20190;-69
2022/09/20 12:44:21;;;;;;;1.98;1.15;;;19.10;62.70;;;;;;5049250;28;20187;-69
2022/09/20 12:47:22;;;;;;;1.30;1.15;;;19.10;62.60;;;;;;5032661;28;20286;-69
2022/09/20 12:52:50;;;;;;;2.00;1.33;;;19.10;62.90;;;;;;5052342;28;20214;-69
2022/09/20 12:55:41;;;;;;;2.55;1.13;;;19.10;62.60;;;;;;5052119;28;20189;-69
2022/09/20 12:58:12;;;;;;;1.10;1.00;;;19.10;62.60;;;;;;5052341;28;20206;-69
2022/09/20 13:00:59;;;;;;;1.83;1.40;;;19.10;62.80;;;;;;5052687;28;20191;-69
2022/09/20 13:03:33;;;;;;;1.52;1.42;;;19.10;62.70;;;;;;5052330;28;20182;-69
2022/09/20 13:06:09;;;;;;;1.77;1.40;;;19.10;63.00;;;;;;5052366;28;20260;-69
2022/09/20 13:08:43;;;;;;;1.95;1.30;;;19.10;62.90;;;;;;5052192;28;20225;-68
2022/09/20 13:11:27;;;;;;;1.77;1.25;;;19.10;62.90;;;;;;5052480;28;20716;-69
2022/09/20 13:14:03;;;;;;;1.63;1.33;;;19.10;62.40;;;;;;5052830;28;20195;-69
2022/09/20 13:17:02;;;;;;;1.40;1.30;;;19.10;62.40;;;;;;5051591;28;20181;-69
2022/09/20 13:19:37;;;;;;;2.25;1.30;;;19.10;62.70;;;;;;5035605;28;20211;-69
2022/09/20 13:22:16;;;;;;;1.90;1.45;;;19.10;62.60;;;;;;5068168;28;20210;-69
2022/09/20 13:24:46;;;;;;;2.28;1.10;;;19.10;62.60;;;;;;5051559;28;20230;-69
2022/09/20 13:27:24;;;;;;;1.65;1.25;;;19.10;62.50;;;;;;5051690;28;20238;-69
2022/09/20 13:29:52;;;;;;;1.85;1.20;;;19.10;62.70;;;;;;5035914;28;20179;-70
2022/09/20 13:32:24;;;;;;;1.30;1.20;;;19.10;62.40;;;;;;5052855;28;20199;-70
2022/09/20 13:35:09;;;;;;;2.17;1.38;;;19.10;62.70;;;;;;5036566;28;20179;-69
2022/09/20 13:37:48;;;;;;;1.77;1.10;;;19.10;62.40;;;;;;5020831;28;20183;-69
2022/09/20 13:40:32;;;;;;;1.67;1.45;;;19.10;62.70;;;;;;5036662;28;20171;-69
2022/09/20 13:43:03;;;;;;;1.65;1.45;;;19.10;62.80;;;;;;5035766;28;20203;-70
2022/09/20 13:45:29;;;;;;;1.30;1.20;;;19.20;62.70;;;;;;5021293;28;20221;-70
2022/09/20 13:47:58;;;;;;;2.58;1.50;;;19.10;62.50;;;;;;5036398;28;20219;-69
2022/09/20 13:50:34;;;;;;;1.50;1.25;;;19.10;62.40;;;;;;5036873;28;20203;-70
2022/09/20 13:53:14;;;;;;;2.08;1.20;;;19.10;62.60;;;;;;5038473;28;20203;-69
2022/09/20 13:55:45;;;;;;;2.33;1.25;;;19.10;62.70;;;;;;5039140;28;20187;-70
2022/09/20 13:58:24;;;;;;;1.80;1.13;;;19.10;62.60;;;;;;5053898;28;20213;-70
2022/09/20 14:00:55;;;;;;;3.50;1.42;;;19.10;62.50;;;;;;5037745;28;20198;-70
2022/09/20 14:03:22;;;;;;;1.63;1.20;;;19.10;62.20;;;;;;5037981;28;20370;-70
2022/09/20 14:05:53;;;;;;;1.25;1.15;;;19.10;62.30;;;;;;5038795;28;20183;-70
2022/09/20 14:08:50;;;;;;;1.67;1.20;;;19.10;62.50;;;;;;5036900;28;20211;-70
2022/09/20 14:11:22;;;;;;;2.05;1.40;;;19.10;62.30;;;;;;5053611;28;20214;-70
2022/09/20 14:13:54;;;;;;;1.45;1.17;;;19.10;62.00;;;;;;5037113;28;20171;-69
2022/09/20 14:16:28;;;;;;;2.13;1.23;;;19.10;62.30;;;;;;5053081;28;20187;-70
2022/09/20 14:18:57;;;;;;;1.30;1.20;;;19.10;62.00;;;;;;5037234;28;20233;-70
2022/09/20 14:21:27;;;;;;;2.25;1.45;;;19.10;62.10;;;;;;5053261;28;20294;-70
2022/09/20 14:23:57;;;;;;;1.38;1.20;;;19.10;62.10;;;;;;5037828;28;20230;-70
2022/09/20 14:26:27;;;;;;;2.17;1.48;;;19.10;62.20;;;;;;5036353;28;20214;-70
2022/09/20 14:28:53;;;;;;;1.55;1.23;;;19.10;62.20;;;;;;5052667;28;20219;-70